Time;durP1;ratioP1;P1;durP2;ratioP2;P2;SDS_P1;SDS_P2;PMS_P1;PMS_P2;Temp;Humidity;BMP_temperature;BMP_pressure;BME280_temperature;BME280_humidity;BME280_pressure;Samples;Min_cycle;Max_cycle;Signal;HPM_P1;HPM_P2
2022/11/30 00:01:49;;;;;;;50.85;29.13;;;;;;;;;;5013212;28;20096;-78
2022/11/30 00:04:15;;;;;;;50.60;28.58;;;;;;;;;;4996765;28;20159;-79
2022/11/30 00:06:48;;;;;;;47.17;28.88;;;;;;;;;;4995142;28;20022;-77
2022/11/30 00:09:14;;;;;;;55.40;31.10;;;;;;;;;;4994118;28;20026;-78
2022/11/30 00:11:40;;;;;;;50.20;29.75;;;;;;;;;;5013173;28;20026;-78
2022/11/30 00:14:06;;;;;;;51.05;30.00;;;;;;;;;;4995217;28;20022;-78
2022/11/30 00:16:36;;;;;;;54.30;30.05;;;;;;;;;;4995077;28;20504;-77
2022/11/30 00:19:02;;;;;;;50.85;28.27;;;;;;;;;;5012371;28;20112;-79
2022/11/30 00:21:46;;;;;;;53.83;31.02;;;;;;;;;;4994107;28;20032;-77
2022/11/30 00:24:14;;;;;;;50.92;29.00;;;;;;;;;;4994294;28;20092;-79
2022/11/30 00:26:51;;;;;;;58.10;29.75;;;;;;;;;;4996058;28;20116;-78
2022/11/30 00:29:20;;;;;;;52.67;30.13;;;;;;;;;;4995752;28;20030;-79
2022/11/30 00:32:01;;;;;;;53.13;30.05;;;;;;;;;;5013167;28;20030;-79
2022/11/30 00:34:27;;;;;;;54.97;29.73;;;;;;;;;;4996967;28;20034;-78
2022/11/30 00:36:53;;;;;;;49.75;29.33;;;;;;;;;;5012546;28;20076;-79
2022/11/30 00:39:25;;;;;;;53.88;29.70;;;;;;;;;;4992693;28;20030;-78
2022/11/30 00:41:53;;;;;;;49.97;30.02;;;;;;;;;;5012969;28;20029;-77
2022/11/30 00:44:23;;;;;;;50.17;29.80;;;;;;;;;;4998692;28;20026;-79
2022/11/30 00:46:51;;;;;;;54.78;30.08;;;;;;;;;;4995817;28;20034;-77
2022/11/30 00:49:20;;;;;;;50.58;28.65;;;;;;;;;;4994815;28;20065;-77
2022/11/30 00:51:48;;;;;;;51.47;30.38;;;;;;;;;;5012212;28;20029;-78
2022/11/30 00:54:17;;;;;;;48.97;28.60;;;;;;;;;;4994235;28;20030;-80
2022/11/30 00:56:48;;;;;;;48.15;26.17;;;;;;;;;;4994632;28;20079;-77
2022/11/30 00:59:17;;;;;;;50.00;27.70;;;;;;;;;;4993803;28;20041;-79
2022/11/30 01:01:46;;;;;;;47.75;28.05;;;;;;;;;;5018152;28;20032;-78
2022/11/30 01:04:12;;;;;;;43.70;27.08;;;;;;;;;;5019285;28;20030;-79
2022/11/30 01:06:38;;;;;;;48.60;27.80;;;;;;;;;;5020765;28;20026;-79
2022/11/30 01:09:04;;;;;;;46.83;26.38;;;;;;;;;;4999179;28;20018;-79
2022/11/30 01:11:31;;;;;;;48.40;27.60;;;;;;;;;;5017687;28;20029;-79
2022/11/30 01:13:57;;;;;;;44.75;27.10;;;;;;;;;;5016620;28;20018;-79
2022/11/30 01:16:28;;;;;;;46.22;26.77;;;;;;;;;;5016231;28;20026;-79
2022/11/30 01:18:54;;;;;;;43.63;26.23;;;;;;;;;;5012765;28;20026;-79
2022/11/30 01:21:24;;;;;;;45.47;26.58;;;;;;;;;;4996758;28;20034;-79
2022/11/30 01:23:52;;;;;;;45.85;26.52;;;;;;;;;;5013924;28;20030;-79
2022/11/30 01:26:23;;;;;;;43.25;25.35;;;;;;;;;;5014747;28;20033;-80
2022/11/30 01:28:53;;;;;;;41.83;25.73;;;;;;;;;;5010722;28;20037;-77
2022/11/30 01:31:22;;;;;;;42.50;26.25;;;;;;;;;;5010899;28;20029;-78
2022/11/30 01:34:05;;;;;;;43.03;26.48;;;;;;;;;;4992633;28;20130;-78
2022/11/30 01:37:18;;;;;;;42.03;24.30;;;;;;;;;;4993722;28;20053;-78
2022/11/30 01:39:46;;;;;;;45.90;27.02;;;;;;;;;;4993152;28;20116;-79
2022/11/30 01:42:17;;;;;;;43.78;26.05;;;;;;;;;;4996569;28;20038;-79
2022/11/30 01:45:09;;;;;;;44.33;27.00;;;;;;;;;;5014668;28;20167;-78
2022/11/30 01:48:04;;;;;;;44.83;26.73;;;;;;;;;;4985044;28;20036;-79
2022/11/30 01:50:37;;;;;;;47.03;26.30;;;;;;;;;;5024601;23;20049;-81
2022/11/30 01:53:44;;;;;;;45.38;27.55;;;;;;;;;;5016483;28;20026;-79
2022/11/30 01:56:18;;;;;;;42.35;26.27;;;;;;;;;;5015268;28;20041;-80
2022/11/30 01:59:13;;;;;;;49.15;26.58;;;;;;;;;;5030893;22;20022;-76
2022/11/30 02:01:50;;;;;;;41.55;24.58;;;;;;;;;;4996054;28;20041;-78
2022/11/30 02:04:29;;;;;;;43.25;26.10;;;;;;;;;;4997556;28;20037;-80
2022/11/30 02:06:58;;;;;;;43.72;25.98;;;;;;;;;;5015020;28;20018;-79
2022/11/30 02:09:31;;;;;;;44.08;26.17;;;;;;;;;;5014691;28;20030;-79
2022/11/30 02:12:04;;;;;;;48.00;27.50;;;;;;;;;;5015364;28;20034;-76
2022/11/30 02:14:30;;;;;;;44.38;27.30;;;;;;;;;;5017925;28;20025;-79
2022/11/30 02:17:17;;;;;;;43.17;25.83;;;;;;;;;;4999093;28;20116;-79
2022/11/30 02:20:05;;;;;;;41.95;25.50;;;;;;;;;;4997797;28;20022;-79
2022/11/30 02:22:37;;;;;;;46.83;27.92;;;;;;;;;;5015252;28;20109;-79
2022/11/30 02:25:12;;;;;;;41.08;25.38;;;;;;;;;;4997330;28;20014;-79
2022/11/30 02:28:00;;;;;;;46.58;26.80;;;;;;;;;;4996805;28;20441;-78
2022/11/30 02:30:29;;;;;;;41.35;25.55;;;;;;;;;;4999598;28;20125;-78
2022/11/30 02:33:04;;;;;;;41.53;25.30;;;;;;;;;;5016252;28;20054;-80
2022/11/30 02:35:35;;;;;;;45.05;26.30;;;;;;;;;;5015743;28;20029;-79
2022/11/30 02:38:01;;;;;;;43.95;25.98;;;;;;;;;;4999623;28;20030;-79
2022/11/30 02:40:30;;;;;;;42.65;26.45;;;;;;;;;;4999425;28;20030;-79
2022/11/30 02:43:01;;;;;;;41.75;25.73;;;;;;;;;;5017823;28;20026;-79
2022/11/30 02:45:27;;;;;;;;;;;;;;;;;;5019599;28;20476;-78
2022/11/30 02:48:05;;;;;;;41.30;24.73;;;;;;;;;;5001392;28;19905;-78
2022/11/30 02:50:33;;;;;;;45.67;27.25;;;;;;;;;;5014080;28;20022;-78
2022/11/30 02:53:03;;;;;;;45.13;27.27;;;;;;;;;;5014311;28;20103;-78
2022/11/30 02:55:35;;;;;;;45.20;27.80;;;;;;;;;;4996225;28;20030;-77
2022/11/30 02:58:04;;;;;;;46.70;27.33;;;;;;;;;;5013161;28;20018;-78
2022/11/30 03:00:30;;;;;;;42.03;25.15;;;;;;;;;;5012324;28;20030;-78
2022/11/30 03:02:56;;;;;;;47.55;26.98;;;;;;;;;;4986367;28;20026;-78
2022/11/30 03:05:28;;;;;;;46.10;26.92;;;;;;;;;;4996402;28;20515;-78
2022/11/30 03:07:54;;;;;;;43.13;25.88;;;;;;;;;;4995969;28;20480;-78
2022/11/30 03:10:28;;;;;;;42.88;25.88;;;;;;;;;;4995870;28;20116;-78
2022/11/30 03:13:14;;;;;;;43.08;26.60;;;;;;;;;;4996469;28;20110;-78
2022/11/30 03:15:40;;;;;;;43.40;26.15;;;;;;;;;;5014073;28;20530;-77
2022/11/30 03:18:07;;;;;;;44.58;25.92;;;;;;;;;;5013378;28;20481;-77
2022/11/30 03:20:35;;;;;;;43.58;26.83;;;;;;;;;;4995465;28;20030;-77
2022/11/30 03:23:03;;;;;;;45.47;26.25;;;;;;;;;;5013715;28;20026;-80
2022/11/30 03:25:32;;;;;;;46.33;27.20;;;;;;;;;;4995641;28;20029;-78
2022/11/30 03:28:03;;;;;;;43.55;25.88;;;;;;;;;;4995838;28;20022;-78
2022/11/30 03:30:32;;;;;;;42.00;26.60;;;;;;;;;;5013592;28;20028;-77
2022/11/30 03:33:03;;;;;;;43.45;26.30;;;;;;;;;;4996218;28;20030;-79
2022/11/30 03:35:37;;;;;;;47.40;27.30;;;;;;;;;;4996662;28;20450;-78
2022/11/30 03:38:03;;;;;;;43.53;25.63;;;;;;;;;;4996073;28;20037;-78
2022/11/30 03:40:34;;;;;;;43.75;26.58;;;;;;;;;;4997209;28;20113;-79
2022/11/30 03:43:03;;;;;;;43.15;26.08;;;;;;;;;;4997332;28;20125;-79
2022/11/30 03:45:31;;;;;;;50.22;28.05;;;;;;;;;;4999194;28;20026;-78
2022/11/30 03:48:09;;;;;;;41.67;26.13;;;;;;;;;;4998179;28;20107;-79
2022/11/30 03:50:48;;;;;;;47.08;26.55;;;;;;;;;;5029055;23;20408;-78
2022/11/30 03:53:14;;;;;;;42.95;27.35;;;;;;;;;;5010869;28;20026;-79
2022/11/30 03:55:40;;;;;;;44.38;26.65;;;;;;;;;;4993277;28;20032;-79
2022/11/30 03:58:16;;;;;;;48.60;28.65;;;;;;;;;;5013551;28;20042;-81
2022/11/30 04:00:45;;;;;;;45.70;25.50;;;;;;;;;;5016684;28;20026;-80
2022/11/30 04:03:16;;;;;;;43.92;26.67;;;;;;;;;;4996517;28;20049;-78
2022/11/30 04:05:44;;;;;;;48.22;26.95;;;;;;;;;;4995128;28;20076;-78
2022/11/30 04:08:13;;;;;;;41.33;24.60;;;;;;;;;;5012616;28;20026;-80
2022/11/30 04:10:42;;;;;;;44.08;25.60;;;;;;;;;;4990419;28;20128;-80
2022/11/30 04:13:11;;;;;;;49.72;27.20;;;;;;;;;;4996650;28;20014;-78
2022/11/30 04:15:37;;;;;;;45.67;25.98;;;;;;;;;;4995708;28;20037;-79
2022/11/30 04:18:03;;;;;;;44.92;25.92;;;;;;;;;;5015151;28;20022;-78
2022/11/30 04:20:29;;;;;;;43.13;25.05;;;;;;;;;;5016358;28;20093;-79
2022/11/30 04:22:58;;;;;;;44.60;24.88;;;;;;;;;;5018224;28;20014;-79
2022/11/30 04:25:24;;;;;;;44.35;25.60;;;;;;;;;;5017301;28;20451;-79
2022/11/30 04:27:50;;;;;;;46.78;26.08;;;;;;;;;;5015902;28;20028;-79
2022/11/30 04:30:17;;;;;;;42.75;25.55;;;;;;;;;;4997267;28;20022;-78
2022/11/30 04:32:43;;;;;;;52.53;26.52;;;;;;;;;;4995492;28;20045;-78
2022/11/30 04:35:12;;;;;;;46.60;26.67;;;;;;;;;;5013626;28;20468;-78
2022/11/30 04:37:38;;;;;;;51.42;27.02;;;;;;;;;;4999806;28;20022;-79
2022/11/30 04:40:10;;;;;;;45.35;25.65;;;;;;;;;;5025700;28;20082;-81
2022/11/30 04:42:36;;;;;;;43.78;27.33;;;;;;;;;;5037469;28;20014;-82
2022/11/30 04:45:06;;;;;;;41.63;24.33;;;;;;;;;;5020442;28;20029;-83
2022/11/30 04:47:32;;;;;;;49.38;27.13;;;;;;;;;;5037064;28;20077;-83
2022/11/30 04:49:58;;;;;;;48.00;27.67;;;;;;;;;;5037108;28;20114;-84
2022/11/30 04:52:24;;;;;;;49.58;27.67;;;;;;;;;;5023098;28;20026;-78
2022/11/30 04:54:51;;;;;;;51.72;28.73;;;;;;;;;;4994885;28;20030;-78
2022/11/30 04:57:18;;;;;;;47.83;26.98;;;;;;;;;;5012612;28;20287;-78
2022/11/30 04:59:44;;;;;;;46.30;26.52;;;;;;;;;;4994795;28;20025;-77
2022/11/30 05:02:10;;;;;;;53.33;28.58;;;;;;;;;;5012907;28;20041;-78
2022/11/30 05:04:36;;;;;;;49.95;29.02;;;;;;;;;;4994518;28;20034;-76
2022/11/30 05:07:02;;;;;;;54.45;30.17;;;;;;;;;;5012171;28;20576;-78
2022/11/30 05:09:34;;;;;;;55.10;30.15;;;;;;;;;;4994556;28;20539;-79
2022/11/30 05:12:00;;;;;;;52.42;29.65;;;;;;;;;;5012137;28;20132;-78
2022/11/30 05:14:29;;;;;;;53.53;30.75;;;;;;;;;;5012265;28;20084;-78
2022/11/30 05:16:55;;;;;;;58.53;31.45;;;;;;;;;;4996061;28;20030;-79
2022/11/30 05:19:23;;;;;;;55.78;30.40;;;;;;;;;;5022453;28;20037;-77
2022/11/30 05:21:49;;;;;;;53.03;30.23;;;;;;;;;;4998657;28;20499;-78
2022/11/30 05:24:16;;;;;;;51.97;29.63;;;;;;;;;;5002608;28;20030;-79
2022/11/30 05:26:42;;;;;;;51.42;29.63;;;;;;;;;;5003188;28;20564;-77
2022/11/30 05:29:08;;;;;;;57.38;30.77;;;;;;;;;;4998387;28;20511;-78
2022/11/30 05:31:34;;;;;;;55.40;30.83;;;;;;;;;;5017306;28;20018;-78
2022/11/30 05:34:00;;;;;;;56.63;29.58;;;;;;;;;;5000025;28;20037;-78
2022/11/30 05:36:26;;;;;;;54.05;29.75;;;;;;;;;;5006336;28;20026;-79
2022/11/30 05:39:00;;;;;;;56.42;31.98;;;;;;;;;;5000559;28;20163;-78
2022/11/30 05:41:26;;;;;;;57.60;30.70;;;;;;;;;;5016398;28;20112;-79
2022/11/30 05:43:52;;;;;;;55.80;30.23;;;;;;;;;;4998536;28;20025;-79
2022/11/30 05:46:18;;;;;;;55.80;29.85;;;;;;;;;;4998093;28;20053;-79
2022/11/30 05:48:44;;;;;;;58.47;32.30;;;;;;;;;;4998056;28;20037;-79
2022/11/30 05:51:11;;;;;;;55.70;31.63;;;;;;;;;;4998278;28;20045;-79
2022/11/30 05:53:43;;;;;;;53.88;30.00;;;;;;;;;;5015563;28;20424;-79
2022/11/30 05:56:11;;;;;;;54.65;29.67;;;;;;;;;;5015652;28;20042;-79
2022/11/30 05:58:37;;;;;;;52.22;30.23;;;;;;;;;;5003327;28;20030;-80
2022/11/30 06:01:04;;;;;;;55.00;30.60;;;;;;;;;;5002967;28;20121;-79
2022/11/30 06:03:31;;;;;;;52.00;27.45;;;;;;;;;;5024265;28;20451;-81
2022/11/30 06:05:57;;;;;;;54.00;30.80;;;;;;;;;;5022055;28;20484;-79
2022/11/30 06:08:23;;;;;;;51.15;28.85;;;;;;;;;;5002050;28;20045;-79
2022/11/30 06:10:54;;;;;;;54.00;28.50;;;;;;;;;;5001570;28;20040;-76
2022/11/30 06:13:23;;;;;;;50.22;27.15;;;;;;;;;;5017706;28;20045;-76
2022/11/30 06:15:49;;;;;;;48.75;27.77;;;;;;;;;;5018698;28;20030;-79
2022/11/30 06:18:16;;;;;;;51.40;28.02;;;;;;;;;;4997172;28;20029;-78
2022/11/30 06:20:42;;;;;;;53.75;27.92;;;;;;;;;;4996988;28;20053;-72
2022/11/30 06:23:08;;;;;;;58.72;30.80;;;;;;;;;;5014545;28;20446;-73
2022/11/30 06:25:40;;;;;;;52.72;27.27;;;;;;;;;;5014559;28;20029;-74
2022/11/30 06:28:12;;;;;;;48.80;27.10;;;;;;;;;;4996682;28;20346;-77
2022/11/30 06:30:38;;;;;;;48.90;27.67;;;;;;;;;;5014138;28;20107;-77
2022/11/30 06:33:04;;;;;;;46.88;26.77;;;;;;;;;;4996845;28;20040;-70
2022/11/30 06:35:30;;;;;;;55.05;31.17;;;;;;;;;;5014008;28;20423;-71
2022/11/30 06:38:13;;;;;;;54.83;28.88;;;;;;;;;;5013975;28;20030;-77
2022/11/30 06:40:39;;;;;;;48.30;27.85;;;;;;;;;;5014288;28;20026;-77
2022/11/30 06:43:11;;;;;;;48.55;27.85;;;;;;;;;;4997235;28;20172;-74
2022/11/30 06:45:40;;;;;;;56.08;29.33;;;;;;;;;;4997086;28;20500;-77
2022/11/30 06:48:13;;;;;;;55.47;28.15;;;;;;;;;;5015012;28;20413;-79
2022/11/30 06:50:40;;;;;;;55.40;28.90;;;;;;;;;;5014213;28;20543;-78
2022/11/30 06:53:06;;;;;;;50.47;27.83;;;;;;;;;;4996498;28;20500;-78
2022/11/30 06:55:36;;;;;;;52.05;27.70;;;;;;;;;;5014063;28;20553;-78
2022/11/30 06:58:09;;;;;;;50.72;27.88;;;;;;;;;;4997849;28;20052;-79
2022/11/30 07:00:38;;;;;;;51.80;27.45;;;;;;;;;;4998472;28;20026;-79
2022/11/30 07:03:05;;;;;;;49.38;27.15;;;;;;;;;;5001211;28;20030;-79
2022/11/30 07:05:33;;;;;;;51.70;28.20;;;;;;;;;;5018203;28;20113;-78
2022/11/30 07:08:00;;;;;;;47.10;26.63;;;;;;;;;;4998067;28;20403;-77
2022/11/30 07:10:28;;;;;;;53.78;27.77;;;;;;;;;;5016856;28;20013;-79
2022/11/30 07:13:00;;;;;;;49.17;25.77;;;;;;;;;;5001111;28;20049;-81
2022/11/30 07:15:26;;;;;;;46.38;26.02;;;;;;;;;;5001183;28;20042;-78
2022/11/30 07:17:55;;;;;;;46.92;26.15;;;;;;;;;;5000465;28;20026;-79
2022/11/30 07:20:43;;;;;;;51.95;26.52;;;;;;;;;;4997571;28;20064;-78
2022/11/30 07:26:06;;;;;;;53.90;27.73;;;;;;;;;;5014506;28;20044;-78
2022/11/30 07:28:41;;;;;;;51.83;27.25;;;;;;;;;;5014593;28;20435;-77
2022/11/30 07:31:14;;;;;;;47.10;25.33;;;;;;;;;;5014310;28;20049;-76
2022/11/30 07:33:48;;;;;;;41.35;23.63;;;;;;;;;;4996514;28;20492;-78
2022/11/30 07:36:18;;;;;;;43.40;25.80;;;;;;;;;;4996397;28;20030;-78
2022/11/30 07:38:44;;;;;;;44.78;25.08;;;;;;;;;;5013233;28;20032;-77
2022/11/30 07:41:13;;;;;;;45.88;25.10;;;;;;;;;;5013543;28;20056;-77
2022/11/30 07:43:47;;;;;;;39.88;24.50;;;;;;;;;;5012993;28;20066;-79
2022/11/30 07:46:14;;;;;;;42.22;22.90;;;;;;;;;;4996959;28;20052;-78
2022/11/30 07:48:42;;;;;;;44.63;24.85;;;;;;;;;;5013799;28;20429;-77
2022/11/30 07:51:16;;;;;;;42.88;24.48;;;;;;;;;;4996803;28;20073;-78
2022/11/30 07:53:43;;;;;;;41.95;24.38;;;;;;;;;;5017702;28;20495;-79
2022/11/30 07:56:10;;;;;;;36.78;22.27;;;;;;;;;;5022952;28;20018;-79
2022/11/30 07:58:39;;;;;;;40.78;23.98;;;;;;;;;;5020693;28;20104;-79
2022/11/30 08:01:06;;;;;;;39.45;22.80;;;;;;;;;;5002947;28;20052;-79
2022/11/30 08:03:36;;;;;;;41.13;24.73;;;;;;;;;;5021408;28;20029;-81
2022/11/30 08:06:07;;;;;;;39.88;23.25;;;;;;;;;;4998665;28;20040;-81
2022/11/30 08:08:34;;;;;;;43.53;23.40;;;;;;;;;;5015344;28;20484;-78
2022/11/30 08:11:00;;;;;;;43.28;23.30;;;;;;;;;;5015088;28;20416;-79
2022/11/30 08:13:27;;;;;;;38.75;21.75;;;;;;;;;;5013823;28;20025;-77
2022/11/30 08:15:53;;;;;;;39.08;21.85;;;;;;;;;;4995359;28;20025;-77
2022/11/30 08:18:22;;;;;;;42.78;23.25;;;;;;;;;;4996661;28;20026;-79
2022/11/30 08:21:01;;;;;;;39.03;21.50;;;;;;;;;;5014858;28;20025;-78
2022/11/30 08:23:34;;;;;;;39.58;21.50;;;;;;;;;;4996338;28;20021;-78
2022/11/30 08:26:05;;;;;;;36.65;21.52;;;;;;;;;;5004366;28;20030;-78
2022/11/30 08:28:31;;;;;;;41.78;23.60;;;;;;;;;;5001177;28;20023;-80
2022/11/30 08:31:01;;;;;;;33.85;20.77;;;;;;;;;;4976280;28;20061;-78
2022/11/30 08:33:29;;;;;;;40.53;24.02;;;;;;;;;;4976073;28;20046;-80
2022/11/30 08:36:04;;;;;;;37.97;22.52;;;;;;;;;;4993761;28;20022;-77
2022/11/30 08:38:30;;;;;;;37.45;22.70;;;;;;;;;;4992898;28;20034;-78
2022/11/30 08:41:02;;;;;;;45.13;23.00;;;;;;;;;;4975872;28;20437;-77
2022/11/30 08:43:31;;;;;;;35.80;21.58;;;;;;;;;;4974748;28;20045;-79
2022/11/30 08:45:57;;;;;;;37.60;23.38;;;;;;;;;;4975951;28;20026;-79
2022/11/30 08:48:24;;;;;;;36.08;21.98;;;;;;;;;;4975809;28;20571;-77
2022/11/30 08:50:50;;;;;;;44.83;24.20;;;;;;;;;;4992809;28;20404;-78
2022/11/30 08:53:16;;;;;;;41.72;24.25;;;;;;;;;;4992632;28;20110;-78
2022/11/30 08:55:42;;;;;;;40.45;23.75;;;;;;;;;;4974769;28;20038;-77
2022/11/30 08:58:08;;;;;;;39.63;22.75;;;;;;;;;;4975414;28;20041;-77
2022/11/30 09:00:36;;;;;;;40.25;24.50;;;;;;;;;;4993488;28;20034;-79
2022/11/30 09:03:03;;;;;;;41.70;23.48;;;;;;;;;;4991969;28;20073;-78
2022/11/30 09:05:31;;;;;;;35.33;21.95;;;;;;;;;;4994866;28;20022;-79
2022/11/30 09:07:57;;;;;;;34.97;21.98;;;;;;;;;;4995315;28;20109;-77
2022/11/30 09:10:23;;;;;;;40.55;22.92;;;;;;;;;;5013920;28;20524;-78
2022/11/30 09:12:52;;;;;;;39.63;22.92;;;;;;;;;;4995917;28;20029;-76
2022/11/30 09:15:18;;;;;;;38.47;23.08;;;;;;;;;;5013198;28;20065;-80
2022/11/30 09:17:44;;;;;;;44.17;24.05;;;;;;;;;;4995894;28;20025;-78
2022/11/30 09:20:11;;;;;;;39.28;23.17;;;;;;;;;;5013984;28;20022;-79
2022/11/30 09:22:37;;;;;;;40.95;22.15;;;;;;;;;;4997481;28;20022;-78
2022/11/30 09:25:03;;;;;;;40.80;24.10;;;;;;;;;;5014103;28;20502;-78
2022/11/30 09:27:31;;;;;;;38.83;22.77;;;;;;;;;;5014316;28;20028;-78
2022/11/30 09:29:57;;;;;;;39.42;21.95;;;;;;;;;;5015621;28;20037;-77
2022/11/30 09:32:23;;;;;;;39.90;23.40;;;;;;;;;;5015138;28;20018;-75
2022/11/30 09:34:51;;;;;;;48.08;22.58;;;;;;;;;;4997171;28;20042;-78
2022/11/30 09:37:22;;;;;;;34.13;21.77;;;;;;;;;;5014284;28;20296;-78
2022/11/30 09:39:48;;;;;;;36.65;21.20;;;;;;;;;;5012643;28;20514;-78
2022/11/30 09:42:33;;;;;;;39.05;23.10;;;;;;;;;;4997141;28;20038;-77
2022/11/30 09:45:05;;;;;;;45.17;24.30;;;;;;;;;;5014642;28;20034;-77
2022/11/30 09:47:37;;;;;;;37.53;23.25;;;;;;;;;;4997268;28;20085;-75
2022/11/30 09:50:10;;;;;;;36.17;22.25;;;;;;;;;;5013982;28;20061;-78
2022/11/30 09:52:39;;;;;;;36.38;21.75;;;;;;;;;;5012167;28;20100;-78
2022/11/30 09:55:10;;;;;;;35.83;21.90;;;;;;;;;;4994886;28;20029;-77
2022/11/30 09:57:39;;;;;;;35.85;22.15;;;;;;;;;;5003928;28;20033;-79
2022/11/30 10:00:29;;;;;;;38.38;22.92;;;;;;;;;;5011685;28;20034;-80
2022/11/30 10:02:57;;;;;;;39.80;22.52;;;;;;;;;;5010660;28;20101;-75
2022/11/30 10:05:26;;;;;;;33.90;21.17;;;;;;;;;;4999715;28;20084;-77
2022/11/30 10:08:17;;;;;;;;;;;;;;;;;;;;;
2022/11/30 10:10:55;;;;;;;41.22;22.90;;;;;;;;;;5010715;23;20057;-75
2022/11/30 10:13:33;;;;;;;40.10;20.23;;;;;;;;;;5008077;28;20029;-78
2022/11/30 10:15:59;;;;;;;36.13;21.88;;;;;;;;;;4983123;28;20022;-80
2022/11/30 10:18:49;;;;;;;38.95;21.33;;;;;;;;;;5007359;28;20054;-78
2022/11/30 10:21:26;;;;;;;34.15;21.63;;;;;;;;;;5013750;28;20030;-78
2022/11/30 10:23:54;;;;;;;34.28;21.77;;;;;;;;;;5013496;28;20040;-77
2022/11/30 10:26:32;;;;;;;34.92;20.48;;;;;;;;;;4960032;28;20043;-79
2022/11/30 10:29:19;;;;;;;34.85;21.67;;;;;;;;;;4980470;28;20042;-81
2022/11/30 10:31:48;;;;;;;35.75;21.73;;;;;;;;;;4993002;28;20014;-78
2022/11/30 10:34:23;;;;;;;33.95;21.08;;;;;;;;;;4994959;28;20101;-76
2022/11/30 10:37:12;;;;;;;36.85;21.08;;;;;;;;;;4977946;28;20038;-77
2022/11/30 10:39:43;;;;;;;39.15;23.02;;;;;;;;;;4995523;28;20022;-77
2022/11/30 10:42:20;;;;;;;34.80;20.30;;;;;;;;;;4977760;28;20396;-76
2022/11/30 10:44:57;;;;;;;35.20;21.77;;;;;;;;;;4995092;28;20466;-76
2022/11/30 10:47:25;;;;;;;34.13;19.88;;;;;;;;;;4959381;28;20023;-76
2022/11/30 10:49:51;;;;;;;34.63;20.95;;;;;;;;;;4975162;28;20485;-76
2022/11/30 10:52:20;;;;;;;35.47;21.45;;;;;;;;;;4975126;28;20031;-77
2022/11/30 10:54:50;;;;;;;32.38;20.80;;;;;;;;;;4974957;28;20030;-76
2022/11/30 10:57:16;;;;;;;35.42;21.17;;;;;;;;;;4974544;28;20027;-75
2022/11/30 10:59:45;;;;;;;37.15;20.77;;;;;;;;;;4957793;28;20035;-76
2022/11/30 11:02:30;;;;;;;34.70;21.83;;;;;;;;;;4967252;28;20496;-74
2022/11/30 11:05:07;;;;;;;38.20;21.95;;;;;;;;;;4994224;28;20129;-75
2022/11/30 11:07:37;;;;;;;35.30;20.70;;;;;;;;;;4994076;28;20026;-77
2022/11/30 11:10:03;;;;;;;30.35;19.27;;;;;;;;;;4976553;28;20034;-77
2022/11/30 11:12:29;;;;;;;32.33;19.83;;;;;;;;;;4994415;28;20057;-76
2022/11/30 11:15:15;;;;;;;32.65;19.13;;;;;;;;;;4994719;28;20026;-75
2022/11/30 11:17:40;;;;;;;31.77;19.38;;;;;;;;;;4994391;28;20031;-78
2022/11/30 11:20:27;;;;;;;30.17;20.05;;;;;;;;;;4976914;28;20022;-77
2022/11/30 11:22:53;;;;;;;31.08;18.77;;;;;;;;;;4978083;28;20566;-76
2022/11/30 11:25:21;;;;;;;30.48;19.17;;;;;;;;;;4975218;28;20041;-78
2022/11/30 11:27:51;;;;;;;30.55;17.67;;;;;;;;;;4992746;28;20607;-77
2022/11/30 11:30:26;;;;;;;32.47;19.13;;;;;;;;;;4992385;28;20093;-77
2022/11/30 11:33:00;;;;;;;31.77;19.15;;;;;;;;;;4975258;28;20023;-77
2022/11/30 11:35:41;;;;;;;30.52;18.60;;;;;;;;;;4976524;28;20053;-76
2022/11/30 11:38:07;;;;;;;;;;;;;;;;;;4993888;28;20484;-78
2022/11/30 11:40:33;;;;;;;36.45;19.75;;;;;;;;;;4976184;28;19949;-77
2022/11/30 11:43:15;;;;;;;36.58;19.65;;;;;;;;;;4993858;28;20095;-76
2022/11/30 11:45:49;;;;;;;32.97;19.83;;;;;;;;;;4994084;28;20065;-78
2022/11/30 11:48:28;;;;;;;38.40;19.63;;;;;;;;;;4993642;28;20026;-76
2022/11/30 11:50:58;;;;;;;27.73;17.10;;;;;;;;;;4993448;28;20037;-77
2022/11/30 11:53:44;;;;;;;30.02;19.40;;;;;;;;;;4993424;28;20366;-75
2022/11/30 11:56:20;;;;;;;27.35;17.35;;;;;;;;;;4993266;28;20061;-76
2022/11/30 11:58:52;;;;;;;29.55;17.52;;;;;;;;;;4994149;28;20121;-76
2022/11/30 12:01:28;;;;;;;31.88;18.75;;;;;;;;;;4993057;28;20544;-76
2022/11/30 12:04:13;;;;;;;32.20;19.98;;;;;;;;;;4993653;28;20042;-77
2022/11/30 12:06:41;;;;;;;29.35;17.58;;;;;;;;;;4993444;28;20432;-75
2022/11/30 12:09:26;;;;;;;28.65;18.25;;;;;;;;;;4993417;28;20044;-76
2022/11/30 12:11:53;;;;;;;33.85;19.55;;;;;;;;;;4993027;28;20018;-75
2022/11/30 12:14:21;;;;;;;31.30;19.15;;;;;;;;;;4993696;28;20026;-76
2022/11/30 12:16:59;;;;;;;27.60;18.50;;;;;;;;;;4976153;28;20129;-76
2022/11/30 12:19:40;;;;;;;32.95;20.35;;;;;;;;;;4994492;28;20031;-75
2022/11/30 12:22:18;;;;;;;30.30;19.63;;;;;;;;;;4994086;28;20518;-77
2022/11/30 12:24:44;;;;;;;31.63;19.38;;;;;;;;;;4976180;28;20551;-76
2022/11/30 12:27:13;;;;;;;32.88;19.65;;;;;;;;;;4999056;28;20050;-76
2022/11/30 12:29:39;;;;;;;33.55;21.00;;;;;;;;;;5007229;28;20029;-77
2022/11/30 12:32:24;;;;;;;34.17;20.58;;;;;;;;;;5006876;28;20025;-78
2022/11/30 12:35:01;;;;;;;34.78;20.30;;;;;;;;;;5005852;28;20038;-76
2022/11/30 12:37:32;;;;;;;32.58;19.45;;;;;;;;;;4988271;28;20029;-79
2022/11/30 12:40:16;;;;;;;33.42;20.60;;;;;;;;;;5001987;28;20421;-76
2022/11/30 12:43:06;;;;;;;34.53;20.85;;;;;;;;;;4993604;28;20552;-77
2022/11/30 12:45:44;;;;;;;38.53;20.67;;;;;;;;;;4993059;28;20386;-77
2022/11/30 12:48:11;;;;;;;37.05;21.15;;;;;;;;;;4975657;28;20050;-76
2022/11/30 12:50:56;;;;;;;37.67;23.10;;;;;;;;;;4989277;28;20489;-76
2022/11/30 12:53:38;;;;;;;31.25;19.77;;;;;;;;;;4991229;28;20046;-75
2022/11/30 12:56:04;;;;;;;35.45;21.35;;;;;;;;;;4984996;28;20023;-75
2022/11/30 12:58:30;;;;;;;34.75;21.38;;;;;;;;;;4992137;28;20037;-74
2022/11/30 13:01:35;;;;;;;40.63;23.27;;;;;;;;;;4992606;28;20478;-76
2022/11/30 13:04:20;;;;;;;30.73;19.50;;;;;;;;;;4894213;29;20075;-76
2022/11/30 13:06:52;;;;;;;33.15;20.55;;;;;;;;;;4894558;29;20072;-77
2022/11/30 13:09:21;;;;;;;32.20;20.27;;;;;;;;;;4877639;29;20440;-76
2022/11/30 13:14:41;;;;;;;35.72;19.73;;;;;;;;;;4909438;28;20034;-78
2022/11/30 13:17:13;;;;;;;31.25;19.67;;;;;;;;;;4955467;28;20041;-74
2022/11/30 13:19:41;;;;;;;32.05;20.05;;;;;;;;;;4973066;28;20069;-75
2022/11/30 13:22:33;;;;;;;31.20;19.95;;;;;;;;;;4973038;28;20054;-76
2022/11/30 13:25:11;;;;;;;30.42;18.98;;;;;;;;;;4962842;28;20035;-77
2022/11/30 13:27:47;;;;;;;28.25;18.60;;;;;;;;;;4972643;28;20031;-77
2022/11/30 13:30:19;;;;;;;37.00;20.00;;;;;;;;;;4973085;28;20029;-77
2022/11/30 13:32:46;;;;;;;34.97;20.63;;;;;;;;;;4972856;28;20102;-76
2022/11/30 13:35:27;;;;;;;32.20;20.45;;;;;;;;;;4955227;28;20034;-76
2022/11/30 13:37:53;;;;;;;;;;;;;;;;;;4955913;28;20089;-77
2022/11/30 13:40:23;;;;;;;32.03;19.85;;;;;;;;;;4976182;28;20412;-78
2022/11/30 13:42:54;;;;;;;34.22;20.20;;;;;;;;;;4959403;28;20030;-76
2022/11/30 13:45:26;;;;;;;36.67;20.90;;;;;;;;;;4976531;28;20051;-75
2022/11/30 13:47:54;;;;;;;35.03;19.52;;;;;;;;;;4976320;28;20035;-75
2022/11/30 13:50:26;;;;;;;34.67;20.67;;;;;;;;;;4959085;28;20027;-76
2022/11/30 13:52:58;;;;;;;31.60;19.50;;;;;;;;;;4977371;28;20065;-75
2022/11/30 13:55:50;;;;;;;33.30;20.48;;;;;;;;;;4995458;28;20022;-76
2022/11/30 13:58:16;;;;;;;30.02;18.33;;;;;;;;;;4959962;28;20022;-75
2022/11/30 14:01:03;;;;;;;32.75;18.85;;;;;;;;;;4962418;28;20033;-75
2022/11/30 14:03:30;;;;;;;41.17;19.77;;;;;;;;;;4975990;28;20086;-75
2022/11/30 14:06:28;;;;;;;31.15;19.33;;;;;;;;;;4976143;28;20022;-75
2022/11/30 14:09:00;;;;;;;37.35;19.60;;;;;;;;;;5002292;22;20049;-80
2022/11/30 14:11:33;;;;;;;50.72;20.98;;;;;;;;;;5015805;28;20030;-77
2022/11/30 14:14:20;;;;;;;33.95;19.85;;;;;;;;;;5016394;28;20018;-74
2022/11/30 14:16:46;;;;;;;33.10;19.48;;;;;;;;;;4999439;28;20046;-78
2022/11/30 14:19:13;;;;;;;31.00;19.52;;;;;;;;;;5011051;28;20026;-75
2022/11/30 14:21:42;;;;;;;32.92;19.48;;;;;;;;;;4984535;28;20031;-75
2022/11/30 14:24:11;;;;;;;33.25;20.13;;;;;;;;;;4996383;28;20026;-76
2022/11/30 14:26:40;;;;;;;28.80;18.10;;;;;;;;;;4978023;28;20026;-76
2022/11/30 14:29:06;;;;;;;30.25;18.00;;;;;;;;;;4977787;28;20037;-73
2022/11/30 14:31:47;;;;;;;32.03;19.17;;;;;;;;;;4977239;28;20457;-76
2022/11/30 14:34:13;;;;;;;;;;;;;;;;;;4995812;28;20480;-76
2022/11/30 14:36:47;;;;;;;32.75;19.95;;;;;;;;;;4995626;28;19909;-77
2022/11/30 14:39:32;;;;;;;34.50;19.17;;;;;;;;;;4996157;23;20066;-76
2022/11/30 14:41:59;;;;;;;33.10;18.90;;;;;;;;;;4994875;28;20026;-74
2022/11/30 14:44:25;;;;;;;32.65;19.25;;;;;;;;;;4993546;28;20023;-78
2022/11/30 14:46:52;;;;;;;35.40;20.30;;;;;;;;;;4984939;28;20125;-77
2022/11/30 14:49:28;;;;;;;33.33;19.98;;;;;;;;;;4989800;28;20022;-76